sensor_id;sensor_type;location;lat;lon;timestamp;P1;durP1;ratioP1;P2;durP2;ratioP2
28078;SDS011;15388;42.238;24.684;2024-03-23T00:53:51;75.35;;;25.67;;
28078;SDS011;15388;42.238;24.684;2024-03-23T00:56:17;75.40;;;28.20;;
28078;SDS011;15388;42.238;24.684;2024-03-23T00:58:44;46.78;;;19.60;;
28078;SDS011;15388;42.238;24.684;2024-03-23T01:01:11;36.28;;;16.65;;
28078;SDS011;15388;42.238;24.684;2024-03-23T01:03:36;27.85;;;12.55;;
28078;SDS011;15388;42.238;24.684;2024-03-23T01:06:02;24.30;;;13.13;;
28078;SDS011;15388;42.238;24.684;2024-03-23T01:08:28;26.67;;;12.60;;
28078;SDS011;15388;42.238;24.684;2024-03-23T01:10:55;28.35;;;13.10;;
28078;SDS011;15388;42.238;24.684;2024-03-23T01:13:20;26.42;;;12.18;;
28078;SDS011;15388;42.238;24.684;2024-03-23T01:15:51;18.77;;;11.25;;
28078;SDS011;15388;42.238;24.684;2024-03-23T01:18:19;19.65;;;11.45;;
28078;SDS011;15388;42.238;24.684;2024-03-23T01:20:44;17.30;;;10.20;;
28078;SDS011;15388;42.238;24.684;2024-03-23T01:23:10;19.27;;;9.73;;
28078;SDS011;15388;42.238;24.684;2024-03-23T01:25:35;13.95;;;8.55;;
28078;SDS011;15388;42.238;24.684;2024-03-23T01:28:01;17.73;;;7.20;;
28078;SDS011;15388;42.238;24.684;2024-03-23T01:30:26;12.15;;;7.20;;
28078;SDS011;15388;42.238;24.684;2024-03-23T01:32:51;12.43;;;7.28;;
28078;SDS011;15388;42.238;24.684;2024-03-23T01:35:16;17.23;;;6.60;;
28078;SDS011;15388;42.238;24.684;2024-03-23T01:37:42;10.80;;;7.28;;
28078;SDS011;15388;42.238;24.684;2024-03-23T01:40:07;16.38;;;7.90;;
28078;SDS011;15388;42.238;24.684;2024-03-23T01:42:33;13.02;;;7.20;;
28078;SDS011;15388;42.238;24.684;2024-03-23T01:44:58;9.90;;;6.75;;
28078;SDS011;15388;42.238;24.684;2024-03-23T01:47:23;13.60;;;7.38;;
28078;SDS011;15388;42.238;24.684;2024-03-23T01:49:48;17.67;;;8.25;;
28078;SDS011;15388;42.238;24.684;2024-03-23T01:52:14;17.48;;;7.75;;
28078;SDS011;15388;42.238;24.684;2024-03-23T01:54:40;20.35;;;8.93;;
28078;SDS011;15388;42.238;24.684;2024-03-23T01:57:05;14.95;;;7.05;;
28078;SDS011;15388;42.238;24.684;2024-03-23T01:59:31;52.50;;;16.02;;
28078;SDS011;15388;42.238;24.684;2024-03-23T02:01:56;28.30;;;11.82;;
28078;SDS011;15388;42.238;24.684;2024-03-23T02:04:22;41.38;;;12.75;;
28078;SDS011;15388;42.238;24.684;2024-03-23T02:06:47;29.85;;;11.68;;
28078;SDS011;15388;42.238;24.684;2024-03-23T02:09:13;16.33;;;9.80;;
28078;SDS011;15388;42.238;24.684;2024-03-23T02:11:38;26.02;;;12.60;;
28078;SDS011;15388;42.238;24.684;2024-03-23T02:14:04;41.28;;;19.30;;
28078;SDS011;15388;42.238;24.684;2024-03-23T02:16:29;33.17;;;15.10;;
28078;SDS011;15388;42.238;24.684;2024-03-23T02:18:54;42.65;;;16.13;;
28078;SDS011;15388;42.238;24.684;2024-03-23T02:21:20;36.33;;;16.90;;
28078;SDS011;15388;42.238;24.684;2024-03-23T02:23:45;47.95;;;21.95;;
28078;SDS011;15388;42.238;24.684;2024-03-23T02:26:10;45.35;;;20.67;;
28078;SDS011;15388;42.238;24.684;2024-03-23T02:28:36;35.05;;;17.70;;
28078;SDS011;15388;42.238;24.684;2024-03-23T02:31:01;32.20;;;19.17;;
28078;SDS011;15388;42.238;24.684;2024-03-23T02:33:27;23.85;;;14.95;;
28078;SDS011;15388;42.238;24.684;2024-03-23T02:35:55;30.27;;;15.57;;
28078;SDS011;15388;42.238;24.684;2024-03-23T02:38:21;27.08;;;16.02;;
28078;SDS011;15388;42.238;24.684;2024-03-23T02:40:46;30.08;;;14.13;;
28078;SDS011;15388;42.238;24.684;2024-03-23T02:43:11;39.47;;;21.55;;
28078;SDS011;15388;42.238;24.684;2024-03-23T02:45:36;56.13;;;31.98;;
28078;SDS011;15388;42.238;24.684;2024-03-23T02:48:02;37.92;;;20.00;;
28078;SDS011;15388;42.238;24.684;2024-03-23T02:50:28;37.92;;;20.58;;
28078;SDS011;15388;42.238;24.684;2024-03-23T02:52:54;47.75;;;23.23;;
28078;SDS011;15388;42.238;24.684;2024-03-23T02:55:19;59.47;;;32.50;;
28078;SDS011;15388;42.238;24.684;2024-03-23T02:57:44;45.97;;;23.40;;
28078;SDS011;15388;42.238;24.684;2024-03-23T03:00:10;38.75;;;19.50;;
28078;SDS011;15388;42.238;24.684;2024-03-23T03:02:36;29.67;;;15.90;;
28078;SDS011;15388;42.238;24.684;2024-03-23T03:05:02;31.60;;;19.37;;
28078;SDS011;15388;42.238;24.684;2024-03-23T03:07:29;30.88;;;15.98;;
28078;SDS011;15388;42.238;24.684;2024-03-23T03:09:55;36.20;;;15.15;;
28078;SDS011;15388;42.238;24.684;2024-03-23T03:12:20;26.23;;;14.18;;
28078;SDS011;15388;42.238;24.684;2024-03-23T03:14:45;26.17;;;14.80;;
28078;SDS011;15388;42.238;24.684;2024-03-23T03:17:11;23.67;;;12.27;;
28078;SDS011;15388;42.238;24.684;2024-03-23T03:19:36;27.00;;;11.88;;
28078;SDS011;15388;42.238;24.684;2024-03-23T03:22:01;23.92;;;11.35;;
28078;SDS011;15388;42.238;24.684;2024-03-23T03:24:27;27.50;;;12.18;;
28078;SDS011;15388;42.238;24.684;2024-03-23T03:26:52;32.72;;;12.23;;
28078;SDS011;15388;42.238;24.684;2024-03-23T03:29:17;30.80;;;12.82;;
28078;SDS011;15388;42.238;24.684;2024-03-23T03:31:43;35.25;;;15.40;;
28078;SDS011;15388;42.238;24.684;2024-03-23T03:34:10;38.05;;;17.98;;
28078;SDS011;15388;42.238;24.684;2024-03-23T03:36:35;34.85;;;15.98;;
28078;SDS011;15388;42.238;24.684;2024-03-23T03:39:01;45.83;;;22.13;;
28078;SDS011;15388;42.238;24.684;2024-03-23T03:43:53;28.73;;;11.63;;
28078;SDS011;15388;42.238;24.684;2024-03-23T03:46:23;24.13;;;11.20;;
28078;SDS011;15388;42.238;24.684;2024-03-23T03:49:05;14.40;;;8.80;;
28078;SDS011;15388;42.238;24.684;2024-03-23T03:51:31;15.00;;;8.20;;
28078;SDS011;15388;42.238;24.684;2024-03-23T03:53:57;12.07;;;6.82;;
28078;SDS011;15388;42.238;24.684;2024-03-23T03:56:23;9.45;;;6.57;;
28078;SDS011;15388;42.238;24.684;2024-03-23T03:58:49;12.30;;;7.70;;
28078;SDS011;15388;42.238;24.684;2024-03-23T04:01:15;16.70;;;8.27;;
28078;SDS011;15388;42.238;24.684;2024-03-23T04:03:41;26.50;;;13.77;;
28078;SDS011;15388;42.238;24.684;2024-03-23T04:06:10;20.67;;;11.90;;
28078;SDS011;15388;42.238;24.684;2024-03-23T04:08:35;13.43;;;8.55;;
28078;SDS011;15388;42.238;24.684;2024-03-23T04:11:03;13.00;;;7.30;;
28078;SDS011;15388;42.238;24.684;2024-03-23T04:13:29;14.45;;;6.63;;
28078;SDS011;15388;42.238;24.684;2024-03-23T04:15:55;15.57;;;8.57;;
28078;SDS011;15388;42.238;24.684;2024-03-23T04:18:21;17.98;;;10.10;;
28078;SDS011;15388;42.238;24.684;2024-03-23T04:20:48;21.50;;;12.02;;
28078;SDS011;15388;42.238;24.684;2024-03-23T04:23:13;22.02;;;11.20;;
28078;SDS011;15388;42.238;24.684;2024-03-23T04:25:38;28.08;;;11.57;;
28078;SDS011;15388;42.238;24.684;2024-03-23T04:28:04;41.10;;;13.40;;
28078;SDS011;15388;42.238;24.684;2024-03-23T04:30:30;29.30;;;13.05;;
28078;SDS011;15388;42.238;24.684;2024-03-23T04:32:57;37.25;;;13.90;;
28078;SDS011;15388;42.238;24.684;2024-03-23T04:35:23;27.40;;;12.32;;
28078;SDS011;15388;42.238;24.684;2024-03-23T04:37:50;32.78;;;13.27;;
28078;SDS011;15388;42.238;24.684;2024-03-23T04:40:17;30.50;;;14.75;;
28078;SDS011;15388;42.238;24.684;2024-03-23T04:42:42;62.90;;;20.00;;
28078;SDS011;15388;42.238;24.684;2024-03-23T04:45:09;39.55;;;13.02;;
28078;SDS011;15388;42.238;24.684;2024-03-23T04:47:36;24.65;;;10.05;;
28078;SDS011;15388;42.238;24.684;2024-03-23T04:50:02;16.98;;;8.25;;
28078;SDS011;15388;42.238;24.684;2024-03-23T04:52:28;15.38;;;8.02;;
28078;SDS011;15388;42.238;24.684;2024-03-23T04:54:53;23.15;;;12.52;;
28078;SDS011;15388;42.238;24.684;2024-03-23T04:57:18;34.28;;;9.38;;
28078;SDS011;15388;42.238;24.684;2024-03-23T04:59:43;45.08;;;9.23;;
28078;SDS011;15388;42.238;24.684;2024-03-23T05:02:09;16.33;;;7.15;;
28078;SDS011;15388;42.238;24.684;2024-03-23T05:04:35;22.63;;;9.93;;
28078;SDS011;15388;42.238;24.684;2024-03-23T05:07:02;15.35;;;9.00;;
28078;SDS011;15388;42.238;24.684;2024-03-23T05:09:27;178.43;;;26.98;;
28078;SDS011;15388;42.238;24.684;2024-03-23T05:11:55;101.40;;;31.40;;
28078;SDS011;15388;42.238;24.684;2024-03-23T05:14:20;16.17;;;7.40;;
28078;SDS011;15388;42.238;24.684;2024-03-23T05:16:46;14.27;;;7.35;;
28078;SDS011;15388;42.238;24.684;2024-03-23T05:19:11;28.70;;;6.85;;
28078;SDS011;15388;42.238;24.684;2024-03-23T05:21:37;46.53;;;11.70;;
28078;SDS011;15388;42.238;24.684;2024-03-23T05:24:02;51.90;;;21.95;;
28078;SDS011;15388;42.238;24.684;2024-03-23T05:26:28;29.27;;;13.38;;
28078;SDS011;15388;42.238;24.684;2024-03-23T05:28:54;29.38;;;13.43;;
28078;SDS011;15388;42.238;24.684;2024-03-23T05:31:27;22.73;;;11.95;;
28078;SDS011;15388;42.238;24.684;2024-03-23T05:33:53;33.20;;;11.98;;
28078;SDS011;15388;42.238;24.684;2024-03-23T05:36:18;22.42;;;11.57;;
28078;SDS011;15388;42.238;24.684;2024-03-23T05:38:44;16.75;;;7.05;;
28078;SDS011;15388;42.238;24.684;2024-03-23T05:41:10;15.00;;;6.97;;
28078;SDS011;15388;42.238;24.684;2024-03-23T05:43:36;12.63;;;6.68;;
28078;SDS011;15388;42.238;24.684;2024-03-23T05:46:01;18.23;;;7.40;;
28078;SDS011;15388;42.238;24.684;2024-03-23T05:48:27;17.52;;;8.93;;
28078;SDS011;15388;42.238;24.684;2024-03-23T05:50:53;20.40;;;9.60;;
28078;SDS011;15388;42.238;24.684;2024-03-23T05:53:18;19.67;;;10.60;;
28078;SDS011;15388;42.238;24.684;2024-03-23T05:55:45;26.42;;;12.30;;
28078;SDS011;15388;42.238;24.684;2024-03-23T05:58:12;20.75;;;11.13;;
28078;SDS011;15388;42.238;24.684;2024-03-23T06:00:38;19.20;;;10.35;;
28078;SDS011;15388;42.238;24.684;2024-03-23T06:03:03;24.42;;;11.77;;
28078;SDS011;15388;42.238;24.684;2024-03-23T06:05:28;32.70;;;15.48;;
28078;SDS011;15388;42.238;24.684;2024-03-23T06:07:54;37.67;;;16.98;;
28078;SDS011;15388;42.238;24.684;2024-03-23T06:10:19;40.67;;;18.55;;
28078;SDS011;15388;42.238;24.684;2024-03-23T06:12:47;39.33;;;18.92;;
28078;SDS011;15388;42.238;24.684;2024-03-23T06:15:14;51.22;;;24.42;;
28078;SDS011;15388;42.238;24.684;2024-03-23T06:17:39;58.40;;;22.73;;
28078;SDS011;15388;42.238;24.684;2024-03-23T06:20:05;80.15;;;26.17;;
28078;SDS011;15388;42.238;24.684;2024-03-23T06:22:35;47.60;;;21.50;;
28078;SDS011;15388;42.238;24.684;2024-03-23T06:25:00;44.13;;;21.25;;
28078;SDS011;15388;42.238;24.684;2024-03-23T06:27:25;42.92;;;19.67;;
28078;SDS011;15388;42.238;24.684;2024-03-23T06:29:51;43.00;;;21.20;;
28078;SDS011;15388;42.238;24.684;2024-03-23T06:32:16;52.65;;;20.40;;
28078;SDS011;15388;42.238;24.684;2024-03-23T06:34:42;44.75;;;19.77;;
28078;SDS011;15388;42.238;24.684;2024-03-23T06:37:12;28.92;;;17.95;;
28078;SDS011;15388;42.238;24.684;2024-03-23T06:39:37;40.20;;;18.65;;
28078;SDS011;15388;42.238;24.684;2024-03-23T06:42:03;34.63;;;17.70;;
28078;SDS011;15388;42.238;24.684;2024-03-23T06:45:00;34.15;;;18.40;;
28078;SDS011;15388;42.238;24.684;2024-03-23T06:47:26;54.90;;;19.17;;
28078;SDS011;15388;42.238;24.684;2024-03-23T06:49:52;37.97;;;20.48;;
28078;SDS011;15388;42.238;24.684;2024-03-23T06:52:17;39.65;;;19.98;;
28078;SDS011;15388;42.238;24.684;2024-03-23T06:54:42;44.47;;;20.08;;
28078;SDS011;15388;42.238;24.684;2024-03-23T06:57:09;43.95;;;19.50;;
28078;SDS011;15388;42.238;24.684;2024-03-23T06:59:35;36.80;;;18.60;;
28078;SDS011;15388;42.238;24.684;2024-03-23T07:02:00;34.25;;;18.23;;
28078;SDS011;15388;42.238;24.684;2024-03-23T07:04:25;51.47;;;19.83;;
28078;SDS011;15388;42.238;24.684;2024-03-23T07:06:51;43.50;;;19.45;;
28078;SDS011;15388;42.238;24.684;2024-03-23T07:09:16;39.55;;;16.63;;
28078;SDS011;15388;42.238;24.684;2024-03-23T07:11:42;45.22;;;18.35;;
28078;SDS011;15388;42.238;24.684;2024-03-23T07:14:07;34.85;;;17.48;;
28078;SDS011;15388;42.238;24.684;2024-03-23T07:16:32;35.60;;;16.60;;
28078;SDS011;15388;42.238;24.684;2024-03-23T07:18:58;23.00;;;14.60;;
28078;SDS011;15388;42.238;24.684;2024-03-23T07:21:23;32.53;;;15.13;;
28078;SDS011;15388;42.238;24.684;2024-03-23T07:23:49;35.58;;;19.80;;
28078;SDS011;15388;42.238;24.684;2024-03-23T07:26:14;31.88;;;16.77;;
28078;SDS011;15388;42.238;24.684;2024-03-23T07:28:40;38.10;;;18.55;;
28078;SDS011;15388;42.238;24.684;2024-03-23T07:31:09;27.02;;;14.73;;
28078;SDS011;15388;42.238;24.684;2024-03-23T07:33:35;38.77;;;20.07;;
28078;SDS011;15388;42.238;24.684;2024-03-23T07:36:01;35.40;;;19.83;;
28078;SDS011;15388;42.238;24.684;2024-03-23T07:38:27;33.65;;;19.38;;
28078;SDS011;15388;42.238;24.684;2024-03-23T07:41:02;28.17;;;16.75;;
28078;SDS011;15388;42.238;24.684;2024-03-23T07:43:27;33.30;;;18.05;;
28078;SDS011;15388;42.238;24.684;2024-03-23T07:45:53;28.63;;;16.70;;
28078;SDS011;15388;42.238;24.684;2024-03-23T07:48:18;33.78;;;18.25;;
28078;SDS011;15388;42.238;24.684;2024-03-23T07:50:44;32.08;;;16.70;;
28078;SDS011;15388;42.238;24.684;2024-03-23T07:53:09;32.65;;;19.35;;
28078;SDS011;15388;42.238;24.684;2024-03-23T07:55:34;34.22;;;16.85;;
28078;SDS011;15388;42.238;24.684;2024-03-23T07:57:59;33.33;;;19.98;;
28078;SDS011;15388;42.238;24.684;2024-03-23T08:00:25;36.38;;;20.90;;
28078;SDS011;15388;42.238;24.684;2024-03-23T08:02:51;45.63;;;21.50;;
28078;SDS011;15388;42.238;24.684;2024-03-23T08:05:16;40.72;;;20.90;;
28078;SDS011;15388;42.238;24.684;2024-03-23T08:07:41;28.65;;;17.98;;
28078;SDS011;15388;42.238;24.684;2024-03-23T08:10:06;38.15;;;20.45;;
28078;SDS011;15388;42.238;24.684;2024-03-23T08:12:32;31.30;;;18.77;;
28078;SDS011;15388;42.238;24.684;2024-03-23T08:14:57;34.35;;;19.08;;
28078;SDS011;15388;42.238;24.684;2024-03-23T08:17:22;28.50;;;17.13;;
28078;SDS011;15388;42.238;24.684;2024-03-23T08:19:48;26.08;;;17.73;;
28078;SDS011;15388;42.238;24.684;2024-03-23T08:22:13;28.25;;;17.40;;
28078;SDS011;15388;42.238;24.684;2024-03-23T08:24:38;27.33;;;17.60;;
28078;SDS011;15388;42.238;24.684;2024-03-23T08:27:04;24.08;;;16.08;;
28078;SDS011;15388;42.238;24.684;2024-03-23T08:29:29;25.90;;;14.65;;
28078;SDS011;15388;42.238;24.684;2024-03-23T08:31:55;29.90;;;15.70;;
28078;SDS011;15388;42.238;24.684;2024-03-23T08:34:20;32.67;;;16.23;;
28078;SDS011;15388;42.238;24.684;2024-03-23T08:36:45;24.55;;;13.40;;
28078;SDS011;15388;42.238;24.684;2024-03-23T08:39:11;16.23;;;10.63;;
28078;SDS011;15388;42.238;24.684;2024-03-23T08:41:36;17.33;;;10.85;;
28078;SDS011;15388;42.238;24.684;2024-03-23T08:44:01;20.17;;;10.68;;
28078;SDS011;15388;42.238;24.684;2024-03-23T08:46:26;15.40;;;10.55;;
28078;SDS011;15388;42.238;24.684;2024-03-23T08:48:55;19.48;;;10.48;;
28078;SDS011;15388;42.238;24.684;2024-03-23T08:51:21;17.80;;;10.75;;
28078;SDS011;15388;42.238;24.684;2024-03-23T08:53:46;18.52;;;11.57;;
28078;SDS011;15388;42.238;24.684;2024-03-23T08:56:11;28.10;;;12.00;;
28078;SDS011;15388;42.238;24.684;2024-03-23T08:58:37;20.40;;;9.45;;
28078;SDS011;15388;42.238;24.684;2024-03-23T09:01:03;14.32;;;9.15;;
28078;SDS011;15388;42.238;24.684;2024-03-23T09:03:29;13.30;;;7.90;;
28078;SDS011;15388;42.238;24.684;2024-03-23T09:05:54;16.67;;;7.82;;
28078;SDS011;15388;42.238;24.684;2024-03-23T09:08:20;21.33;;;9.15;;
28078;SDS011;15388;42.238;24.684;2024-03-23T09:10:46;23.60;;;7.68;;
28078;SDS011;15388;42.238;24.684;2024-03-23T09:13:12;15.90;;;6.32;;
28078;SDS011;15388;42.238;24.684;2024-03-23T09:15:45;18.48;;;7.63;;
28078;SDS011;15388;42.238;24.684;2024-03-23T09:18:10;13.90;;;8.55;;
28078;SDS011;15388;42.238;24.684;2024-03-23T09:20:36;19.25;;;8.27;;
28078;SDS011;15388;42.238;24.684;2024-03-23T09:23:01;16.88;;;7.00;;
28078;SDS011;15388;42.238;24.684;2024-03-23T09:25:26;13.43;;;6.60;;
28078;SDS011;15388;42.238;24.684;2024-03-23T09:27:51;10.27;;;7.35;;
28078;SDS011;15388;42.238;24.684;2024-03-23T09:30:17;34.20;;;7.80;;
28078;SDS011;15388;42.238;24.684;2024-03-23T09:32:43;12.93;;;7.15;;
28078;SDS011;15388;42.238;24.684;2024-03-23T09:35:08;10.93;;;7.65;;
28078;SDS011;15388;42.238;24.684;2024-03-23T09:37:34;11.88;;;7.68;;
28078;SDS011;15388;42.238;24.684;2024-03-23T09:39:59;14.05;;;8.25;;
28078;SDS011;15388;42.238;24.684;2024-03-23T09:42:24;11.57;;;8.25;;
28078;SDS011;15388;42.238;24.684;2024-03-23T09:44:50;13.07;;;7.18;;
28078;SDS011;15388;42.238;24.684;2024-03-23T09:47:16;10.98;;;6.70;;
28078;SDS011;15388;42.238;24.684;2024-03-23T09:49:41;14.10;;;8.10;;
28078;SDS011;15388;42.238;24.684;2024-03-23T09:52:07;13.27;;;7.32;;
28078;SDS011;15388;42.238;24.684;2024-03-23T09:54:32;11.20;;;7.07;;
28078;SDS011;15388;42.238;24.684;2024-03-23T09:56:58;11.45;;;6.80;;
28078;SDS011;15388;42.238;24.684;2024-03-23T09:59:23;11.35;;;7.90;;
28078;SDS011;15388;42.238;24.684;2024-03-23T10:01:51;10.52;;;5.68;;
28078;SDS011;15388;42.238;24.684;2024-03-23T10:07:10;13.98;;;6.30;;
28078;SDS011;15388;42.238;24.684;2024-03-23T10:09:36;8.30;;;6.57;;
28078;SDS011;15388;42.238;24.684;2024-03-23T10:12:11;10.15;;;6.55;;
28078;SDS011;15388;42.238;24.684;2024-03-23T10:14:37;9.02;;;6.05;;
28078;SDS011;15388;42.238;24.684;2024-03-23T10:19:38;14.93;;;6.95;;
28078;SDS011;15388;42.238;24.684;2024-03-23T10:22:04;7.35;;;5.85;;
28078;SDS011;15388;42.238;24.684;2024-03-23T10:24:29;11.45;;;6.63;;
28078;SDS011;15388;42.238;24.684;2024-03-23T10:26:57;9.35;;;6.65;;
28078;SDS011;15388;42.238;24.684;2024-03-23T10:29:23;12.93;;;7.40;;
28078;SDS011;15388;42.238;24.684;2024-03-23T10:31:48;11.20;;;7.03;;
28078;SDS011;15388;42.238;24.684;2024-03-23T10:34:14;11.40;;;6.70;;
28078;SDS011;15388;42.238;24.684;2024-03-23T10:36:40;12.90;;;7.38;;
28078;SDS011;15388;42.238;24.684;2024-03-23T10:39:06;22.00;;;8.60;;
28078;SDS011;15388;42.238;24.684;2024-03-23T10:41:32;9.25;;;6.97;;
28078;SDS011;15388;42.238;24.684;2024-03-23T10:43:58;9.70;;;6.38;;
28078;SDS011;15388;42.238;24.684;2024-03-23T10:46:23;11.70;;;6.55;;
28078;SDS011;15388;42.238;24.684;2024-03-23T10:48:48;24.58;;;9.07;;
28078;SDS011;15388;42.238;24.684;2024-03-23T10:51:14;15.95;;;7.20;;
28078;SDS011;15388;42.238;24.684;2024-03-23T10:53:39;10.27;;;6.30;;
28078;SDS011;15388;42.238;24.684;2024-03-23T10:56:05;9.55;;;6.85;;
28078;SDS011;15388;42.238;24.684;2024-03-23T10:58:31;8.93;;;6.93;;
28078;SDS011;15388;42.238;24.684;2024-03-23T11:03:32;24.30;;;9.13;;
28078;SDS011;15388;42.238;24.684;2024-03-23T11:05:57;9.52;;;8.30;;
28078;SDS011;15388;42.238;24.684;2024-03-23T11:08:35;15.73;;;8.50;;
28078;SDS011;15388;42.238;24.684;2024-03-23T11:13:39;13.25;;;8.55;;
28078;SDS011;15388;42.238;24.684;2024-03-23T11:16:17;9.95;;;7.65;;
28078;SDS011;15388;42.238;24.684;2024-03-23T11:18:43;11.68;;;7.30;;
28078;SDS011;15388;42.238;24.684;2024-03-23T11:21:09;12.15;;;6.78;;
28078;SDS011;15388;42.238;24.684;2024-03-23T11:23:34;12.02;;;6.25;;
28078;SDS011;15388;42.238;24.684;2024-03-23T11:25:59;9.27;;;6.43;;
28078;SDS011;15388;42.238;24.684;2024-03-23T11:28:25;9.15;;;6.90;;
28078;SDS011;15388;42.238;24.684;2024-03-23T11:30:50;8.85;;;6.22;;
28078;SDS011;15388;42.238;24.684;2024-03-23T11:33:15;8.30;;;6.97;;
28078;SDS011;15388;42.238;24.684;2024-03-23T11:35:41;7.55;;;5.32;;
28078;SDS011;15388;42.238;24.684;2024-03-23T11:38:10;9.32;;;5.70;;
28078;SDS011;15388;42.238;24.684;2024-03-23T11:40:36;9.77;;;7.05;;
28078;SDS011;15388;42.238;24.684;2024-03-23T11:43:03;10.77;;;5.95;;
28078;SDS011;15388;42.238;24.684;2024-03-23T11:45:29;9.60;;;6.27;;
28078;SDS011;15388;42.238;24.684;2024-03-23T11:48:07;14.55;;;6.25;;
28078;SDS011;15388;42.238;24.684;2024-03-23T11:50:33;8.35;;;5.22;;
28078;SDS011;15388;42.238;24.684;2024-03-23T11:55:52;5.63;;;5.10;;
28078;SDS011;15388;42.238;24.684;2024-03-23T11:58:18;7.88;;;5.38;;
28078;SDS011;15388;42.238;24.684;2024-03-23T12:00:51;6.53;;;5.22;;
28078;SDS011;15388;42.238;24.684;2024-03-23T12:03:17;7.20;;;5.18;;
28078;SDS011;15388;42.238;24.684;2024-03-23T12:05:47;5.03;;;4.53;;
28078;SDS011;15388;42.238;24.684;2024-03-23T12:10:43;7.60;;;5.13;;
28078;SDS011;15388;42.238;24.684;2024-03-23T12:13:09;5.72;;;5.10;;
28078;SDS011;15388;42.238;24.684;2024-03-23T12:15:35;34.87;;;6.77;;
28078;SDS011;15388;42.238;24.684;2024-03-23T12:18:07;6.72;;;5.07;;
28078;SDS011;15388;42.238;24.684;2024-03-23T12:20:33;15.40;;;5.47;;
28078;SDS011;15388;42.238;24.684;2024-03-23T12:23:07;5.88;;;5.15;;
28078;SDS011;15388;42.238;24.684;2024-03-23T12:25:34;6.55;;;5.85;;
28078;SDS011;15388;42.238;24.684;2024-03-23T12:27:59;15.10;;;6.03;;
28078;SDS011;15388;42.238;24.684;2024-03-23T12:30:25;6.10;;;4.45;;
28078;SDS011;15388;42.238;24.684;2024-03-23T12:32:50;6.63;;;4.90;;
28078;SDS011;15388;42.238;24.684;2024-03-23T12:35:15;11.10;;;6.22;;
28078;SDS011;15388;42.238;24.684;2024-03-23T12:37:41;9.57;;;5.45;;
28078;SDS011;15388;42.238;24.684;2024-03-23T12:40:06;9.23;;;5.72;;
28078;SDS011;15388;42.238;24.684;2024-03-23T12:42:33;8.70;;;5.53;;
28078;SDS011;15388;42.238;24.684;2024-03-23T12:44:58;12.18;;;5.45;;
28078;SDS011;15388;42.238;24.684;2024-03-23T12:47:23;6.30;;;5.03;;
28078;SDS011;15388;42.238;24.684;2024-03-23T12:49:49;9.02;;;5.43;;
28078;SDS011;15388;42.238;24.684;2024-03-23T12:52:14;7.68;;;5.00;;
28078;SDS011;15388;42.238;24.684;2024-03-23T12:54:40;8.13;;;5.85;;
28078;SDS011;15388;42.238;24.684;2024-03-23T12:57:05;16.45;;;5.80;;
28078;SDS011;15388;42.238;24.684;2024-03-23T12:59:30;12.45;;;5.85;;
28078;SDS011;15388;42.238;24.684;2024-03-23T13:01:57;6.80;;;5.22;;
28078;SDS011;15388;42.238;24.684;2024-03-23T13:04:22;10.73;;;4.40;;
28078;SDS011;15388;42.238;24.684;2024-03-23T13:06:47;13.52;;;5.47;;
28078;SDS011;15388;42.238;24.684;2024-03-23T13:09:12;7.80;;;4.70;;
28078;SDS011;15388;42.238;24.684;2024-03-23T13:11:38;13.60;;;6.05;;
28078;SDS011;15388;42.238;24.684;2024-03-23T13:14:03;16.02;;;5.28;;
28078;SDS011;15388;42.238;24.684;2024-03-23T13:16:29;5.60;;;4.32;;
28078;SDS011;15388;42.238;24.684;2024-03-23T13:18:54;5.85;;;4.07;;
28078;SDS011;15388;42.238;24.684;2024-03-23T13:21:19;6.55;;;4.70;;
28078;SDS011;15388;42.238;24.684;2024-03-23T13:23:48;5.50;;;4.13;;
28078;SDS011;15388;42.238;24.684;2024-03-23T13:26:15;9.10;;;4.60;;
28078;SDS011;15388;42.238;24.684;2024-03-23T13:28:40;6.95;;;4.15;;
28078;SDS011;15388;42.238;24.684;2024-03-23T13:31:06;7.63;;;4.60;;
28078;SDS011;15388;42.238;24.684;2024-03-23T13:33:33;10.82;;;4.28;;
28078;SDS011;15388;42.238;24.684;2024-03-23T13:35:59;6.97;;;4.30;;
28078;SDS011;15388;42.238;24.684;2024-03-23T13:38:24;20.55;;;5.25;;
28078;SDS011;15388;42.238;24.684;2024-03-23T13:40:57;6.82;;;3.67;;
28078;SDS011;15388;42.238;24.684;2024-03-23T13:43:23;6.88;;;4.32;;
28078;SDS011;15388;42.238;24.684;2024-03-23T13:45:49;17.13;;;5.38;;
28078;SDS011;15388;42.238;24.684;2024-03-23T13:48:15;5.10;;;3.88;;
28078;SDS011;15388;42.238;24.684;2024-03-23T13:50:41;5.93;;;4.00;;
28078;SDS011;15388;42.238;24.684;2024-03-23T13:53:06;7.25;;;3.72;;
28078;SDS011;15388;42.238;24.684;2024-03-23T13:55:33;9.90;;;4.25;;
28078;SDS011;15388;42.238;24.684;2024-03-23T13:57:59;59.22;;;8.98;;
28078;SDS011;15388;42.238;24.684;2024-03-23T14:00:25;16.52;;;4.60;;
28078;SDS011;15388;42.238;24.684;2024-03-23T14:02:50;3.83;;;3.20;;
28078;SDS011;15388;42.238;24.684;2024-03-23T14:05:15;6.22;;;4.60;;
28078;SDS011;15388;42.238;24.684;2024-03-23T14:07:41;11.00;;;6.90;;
28078;SDS011;15388;42.238;24.684;2024-03-23T14:10:06;13.15;;;9.27;;
28078;SDS011;15388;42.238;24.684;2024-03-23T14:12:32;13.38;;;10.82;;
28078;SDS011;15388;42.238;24.684;2024-03-23T14:14:57;16.98;;;9.93;;
28078;SDS011;15388;42.238;24.684;2024-03-23T14:17:23;12.35;;;7.60;;
28078;SDS011;15388;42.238;24.684;2024-03-23T14:19:48;9.85;;;8.52;;
28078;SDS011;15388;42.238;24.684;2024-03-23T14:22:15;13.65;;;9.32;;
28078;SDS011;15388;42.238;24.684;2024-03-23T14:24:41;20.25;;;12.75;;
28078;SDS011;15388;42.238;24.684;2024-03-23T14:27:07;25.00;;;18.92;;
28078;SDS011;15388;42.238;24.684;2024-03-23T14:29:32;23.60;;;19.05;;
28078;SDS011;15388;42.238;24.684;2024-03-23T14:31:59;22.27;;;15.65;;
28078;SDS011;15388;42.238;24.684;2024-03-23T14:34:26;22.48;;;17.77;;
28078;SDS011;15388;42.238;24.684;2024-03-23T14:36:53;22.30;;;17.08;;
28078;SDS011;15388;42.238;24.684;2024-03-23T14:39:22;22.67;;;14.38;;
28078;SDS011;15388;42.238;24.684;2024-03-23T14:41:47;16.63;;;12.90;;
28078;SDS011;15388;42.238;24.684;2024-03-23T14:44:12;17.33;;;12.35;;
28078;SDS011;15388;42.238;24.684;2024-03-23T14:46:38;17.85;;;10.38;;
28078;SDS011;15388;42.238;24.684;2024-03-23T14:49:03;10.88;;;7.82;;
28078;SDS011;15388;42.238;24.684;2024-03-23T14:51:28;10.23;;;6.57;;
28078;SDS011;15388;42.238;24.684;2024-03-23T14:53:54;10.60;;;6.50;;
28078;SDS011;15388;42.238;24.684;2024-03-23T14:56:19;14.40;;;6.35;;
28078;SDS011;15388;42.238;24.684;2024-03-23T14:58:44;5.75;;;5.22;;
28078;SDS011;15388;42.238;24.684;2024-03-23T15:01:10;5.35;;;4.60;;
28078;SDS011;15388;42.238;24.684;2024-03-23T15:03:36;6.15;;;4.53;;
28078;SDS011;15388;42.238;24.684;2024-03-23T15:06:03;7.20;;;3.95;;
28078;SDS011;15388;42.238;24.684;2024-03-23T15:08:29;16.45;;;5.10;;
28078;SDS011;15388;42.238;24.684;2024-03-23T15:10:54;14.68;;;4.47;;
28078;SDS011;15388;42.238;24.684;2024-03-23T15:13:20;5.57;;;4.00;;
28078;SDS011;15388;42.238;24.684;2024-03-23T15:15:48;10.85;;;4.50;;
28078;SDS011;15388;42.238;24.684;2024-03-23T15:18:16;7.65;;;5.05;;
28078;SDS011;15388;42.238;24.684;2024-03-23T15:20:53;7.68;;;4.57;;
28078;SDS011;15388;42.238;24.684;2024-03-23T15:23:19;9.43;;;4.65;;